createdAt,value
2023-05-08T00:00:47.676Z,20.17
2023-05-08T00:01:58.854Z,14.90
2023-05-08T00:03:06.155Z,20.27
2023-05-08T00:04:10.124Z,15.25
2023-05-08T00:05:14.998Z,14.90
2023-05-08T00:06:18.168Z,13.40
2023-05-08T00:07:21.363Z,13.07
2023-05-08T00:08:24.864Z,15.68
2023-05-08T00:09:30.743Z,17.88
2023-05-08T00:10:35.278Z,17.27
2023-05-08T00:11:40.047Z,16.58
2023-05-08T00:12:43.334Z,14.45
2023-05-08T00:13:47.116Z,14.55
2023-05-08T00:14:50.497Z,17.10
2023-05-08T00:15:53.725Z,17.95
2023-05-08T00:16:57.030Z,16.48
2023-05-08T00:18:00.525Z,19.63
2023-05-08T00:19:04.344Z,14.52
2023-05-08T00:20:08.850Z,17.85
2023-05-08T00:21:12.800Z,14.48
2023-05-08T00:22:16.599Z,17.13
2023-05-08T00:23:22.217Z,12.95
2023-05-08T00:24:29.222Z,17.75
2023-05-08T00:25:32.696Z,13.23
2023-05-08T00:26:36.070Z,15.48
2023-05-08T00:27:40.743Z,13.55
2023-05-08T00:28:44.278Z,17.83
2023-05-08T00:29:50.301Z,11.05
2023-05-08T00:30:53.939Z,12.32
2023-05-08T00:31:57.264Z,14.98
2023-05-08T00:33:00.856Z,15.88
2023-05-08T00:34:04.164Z,14.38
2023-05-08T00:35:08.213Z,15.82
2023-05-08T00:36:12.702Z,11.93
2023-05-08T00:37:16.967Z,14.93
2023-05-08T00:38:20.865Z,10.95
2023-05-08T00:39:24.242Z,15.35
2023-05-08T00:40:28.206Z,10.48
2023-05-08T00:41:31.485Z,10.55
2023-05-08T00:42:35.377Z,12.23
2023-05-08T00:43:40.239Z,10.77
2023-05-08T00:44:46.032Z,11.38
2023-05-08T00:45:49.260Z,10.73
2023-05-08T00:46:53.187Z,13.20
2023-05-08T00:47:56.509Z,13.10
2023-05-08T00:49:00.165Z,11.18
2023-05-08T00:50:04.498Z,13.70
2023-05-08T00:51:09.559Z,13.15
2023-05-08T00:52:13.759Z,11.90
2023-05-08T00:53:19.392Z,17.05
2023-05-08T00:54:23.462Z,15.50
2023-05-08T00:55:28.061Z,15.18
2023-05-08T00:56:34.250Z,13.80
2023-05-08T00:57:38.595Z,15.15
2023-05-08T00:58:44.612Z,13.18
2023-05-08T00:59:50.076Z,15.00
2023-05-08T01:00:57.126Z,12.10
2023-05-08T01:02:01.880Z,14.20
2023-05-08T01:03:05.576Z,12.57
2023-05-08T01:04:09.330Z,13.60
2023-05-08T01:05:13.178Z,13.52
2023-05-08T01:06:16.579Z,13.40
2023-05-08T01:07:20.013Z,12.43
2023-05-08T01:08:23.870Z,13.77
2023-05-08T01:09:27.098Z,13.70
2023-05-08T01:11:18.010Z,16.25
2023-05-08T01:12:47.349Z,12.57
2023-05-08T01:14:19.533Z,15.48
2023-05-08T01:15:36.402Z,11.85
2023-05-08T01:16:48.821Z,16.25
2023-05-08T01:18:34.962Z,14.18
2023-05-08T01:20:10.499Z,15.75
2023-05-08T01:21:58.538Z,15.30
2023-05-08T01:23:22.436Z,13.88
2023-05-08T01:25:17.804Z,15.40
2023-05-08T01:26:29.680Z,15.55
2023-05-08T01:28:08.592Z,13.18
2023-05-08T01:29:51.288Z,15.95
2023-05-08T01:31:18.653Z,16.02
2023-05-08T01:32:25.166Z,13.30
2023-05-08T01:33:51.913Z,13.20
2023-05-08T01:35:01.308Z,16.02
2023-05-08T01:36:43.090Z,14.52
2023-05-08T01:38:05.166Z,14.02
2023-05-08T01:39:46.747Z,13.32
2023-05-08T01:41:07.126Z,15.07
2023-05-08T01:42:38.843Z,12.45
2023-05-08T01:43:54.350Z,14.90
2023-05-08T01:45:04.788Z,10.77
2023-05-08T01:46:16.873Z,15.52
2023-05-08T01:47:26.342Z,15.20
2023-05-08T01:48:35.260Z,12.15
2023-05-08T01:49:44.940Z,14.68
2023-05-08T01:50:53.204Z,12.70
2023-05-08T01:52:15.760Z,13.25
2023-05-08T01:53:28.875Z,15.90
2023-05-08T01:54:57.754Z,15.73
2023-05-08T01:56:09.765Z,16.92
2023-05-08T01:57:15.025Z,9.95
2023-05-08T01:58:19.763Z,11.43
2023-05-08T01:59:25.566Z,17.02
2023-05-08T02:00:28.870Z,12.27
2023-05-08T02:01:33.564Z,14.30
2023-05-08T02:02:42.722Z,11.35
2023-05-08T02:03:48.643Z,15.10
2023-05-08T02:04:53.465Z,11.00
2023-05-08T02:05:59.643Z,11.07
2023-05-08T02:07:04.800Z,13.85
2023-05-08T02:08:15.231Z,11.98
2023-05-08T02:09:22.756Z,18.08
2023-05-08T02:10:28.244Z,15.38
2023-05-08T02:11:34.339Z,14.30
2023-05-08T02:12:39.071Z,15.48
2023-05-08T02:13:47.264Z,14.90
2023-05-08T02:14:53.927Z,13.82
2023-05-08T02:15:58.776Z,13.57
2023-05-08T02:17:03.783Z,13.98
2023-05-08T02:18:09.585Z,14.30
2023-05-08T02:19:14.952Z,15.10
2023-05-08T02:20:20.243Z,13.07
2023-05-08T02:21:25.628Z,11.70
2023-05-08T02:22:30.295Z,12.32
2023-05-08T02:23:35.502Z,17.63
2023-05-08T02:24:40.815Z,13.20
2023-05-08T02:25:47.195Z,11.98
2023-05-08T02:26:53.256Z,17.70
2023-05-08T02:27:57.519Z,12.30
2023-05-08T02:29:03.219Z,11.85
2023-05-08T02:30:11.923Z,13.85
2023-05-08T02:31:16.416Z,12.18
2023-05-08T02:32:22.276Z,14.93
2023-05-08T02:33:28.443Z,12.32
2023-05-08T02:34:34.893Z,16.98
2023-05-08T02:35:40.429Z,13.75
2023-05-08T02:36:44.534Z,15.68
2023-05-08T02:37:56.570Z,9.60
2023-05-08T02:39:02.318Z,10.93
2023-05-08T02:40:09.992Z,11.85
2023-05-08T02:41:15.799Z,12.80
2023-05-08T02:42:37.831Z,18.90
2023-05-08T02:43:42.620Z,12.50
2023-05-08T02:44:46.178Z,12.02
2023-05-08T02:46:05.023Z,14.23
2023-05-08T02:47:29.918Z,16.83
2023-05-08T02:48:51.437Z,12.20
2023-05-08T02:50:12.273Z,15.73
2023-05-08T02:51:53.337Z,14.88
2023-05-08T02:53:06.763Z,11.38
2023-05-08T02:55:22.757Z,11.60
2023-05-08T02:56:44.050Z,14.05
2023-05-08T02:59:24.360Z,10.15
2023-05-08T03:01:40.660Z,10.45
2023-05-08T03:03:36.002Z,8.55
2023-05-08T03:04:59.484Z,10.80
2023-05-08T03:06:08.980Z,10.93
2023-05-08T03:07:14.010Z,12.52
2023-05-08T03:08:25.303Z,9.57
2023-05-08T03:09:43.328Z,10.75
2023-05-08T03:10:52.476Z,12.80
2023-05-08T03:12:04.937Z,10.65
2023-05-08T03:13:16.342Z,14.13
2023-05-08T03:14:41.677Z,10.25
2023-05-08T03:15:58.876Z,11.48
2023-05-08T03:17:09.968Z,13.25
2023-05-08T03:18:19.255Z,11.18
2023-05-08T03:19:37.374Z,12.70
2023-05-08T03:20:48.411Z,10.82
2023-05-08T03:21:54.384Z,12.07
2023-05-08T03:22:57.971Z,13.93
2023-05-08T03:24:03.837Z,12.73
2023-05-08T03:25:10.782Z,10.10
2023-05-08T03:26:21.485Z,11.85
2023-05-08T03:27:28.823Z,14.23
2023-05-08T03:28:32.772Z,14.00
2023-05-08T03:29:39.858Z,10.00
2023-05-08T03:30:43.972Z,13.70
2023-05-08T03:31:52.967Z,12.18
2023-05-08T03:33:00.000Z,12.02
2023-05-08T03:34:04.742Z,14.52
2023-05-08T03:35:10.266Z,9.48
2023-05-08T03:36:18.148Z,18.25
2023-05-08T03:37:21.730Z,13.57
2023-05-08T03:38:25.816Z,12.45
2023-05-08T03:39:29.265Z,10.15
2023-05-08T03:40:39.007Z,12.95
2023-05-08T03:41:42.675Z,9.98
2023-05-08T03:42:47.248Z,9.05
2023-05-08T03:43:51.362Z,10.65
2023-05-08T03:44:54.717Z,12.77
2023-05-08T03:45:59.831Z,10.98
2023-05-08T03:47:04.609Z,9.55
2023-05-08T03:48:10.087Z,10.98
2023-05-08T03:49:15.848Z,11.05
2023-05-08T03:50:20.240Z,11.38
2023-05-08T03:51:25.490Z,12.52
2023-05-08T03:52:38.528Z,11.02
2023-05-08T03:53:42.840Z,10.23
2023-05-08T03:54:46.793Z,15.82
2023-05-08T03:55:50.862Z,13.68
2023-05-08T03:56:54.946Z,12.30
2023-05-08T03:58:07.748Z,13.98
2023-05-08T03:59:24.288Z,9.63
2023-05-08T04:00:48.904Z,12.02
2023-05-08T04:02:22.316Z,11.45
2023-05-08T04:03:35.881Z,11.25
2023-05-08T04:04:45.434Z,8.52
2023-05-08T04:06:03.087Z,11.05
2023-05-08T04:07:36.849Z,12.15
2023-05-08T04:09:26.162Z,18.27
2023-05-08T04:10:38.305Z,17.33
2023-05-08T04:12:09.664Z,12.93
2023-05-08T04:13:18.976Z,10.95
2023-05-08T04:14:30.599Z,13.45
2023-05-08T04:15:39.496Z,12.43
2023-05-08T04:16:53.712Z,14.43
2023-05-08T04:18:05.061Z,11.82
2023-05-08T04:19:19.566Z,12.05
2023-05-08T04:20:27.270Z,14.20
2023-05-08T04:21:35.523Z,13.52
2023-05-08T04:22:41.414Z,12.60
2023-05-08T04:23:48.309Z,13.05
2023-05-08T04:24:55.555Z,11.10
2023-05-08T04:26:00.661Z,15.50
2023-05-08T04:27:05.275Z,12.45
2023-05-08T04:28:12.547Z,11.57
2023-05-08T04:29:18.702Z,11.32
2023-05-08T04:30:23.195Z,12.15
2023-05-08T04:31:27.594Z,10.63
2023-05-08T04:32:32.107Z,16.85
2023-05-08T04:33:36.085Z,11.65
2023-05-08T04:34:41.101Z,15.18
2023-05-08T04:35:46.335Z,13.18
2023-05-08T04:36:50.458Z,12.63
2023-05-08T04:37:54.411Z,13.77
2023-05-08T04:38:59.177Z,14.02
2023-05-08T04:40:05.264Z,13.43
2023-05-08T04:41:09.947Z,9.57
2023-05-08T04:42:13.830Z,10.55
2023-05-08T04:43:17.493Z,8.98
2023-05-08T04:44:22.506Z,9.38
2023-05-08T04:45:25.811Z,8.88
2023-05-08T04:46:29.344Z,14.65
2023-05-08T04:47:32.962Z,14.75
2023-05-08T04:48:37.393Z,11.07
2023-05-08T04:49:40.719Z,14.85
2023-05-08T04:50:43.980Z,15.77
2023-05-08T04:51:47.219Z,14.55
2023-05-08T04:52:50.548Z,11.43
2023-05-08T04:53:54.217Z,10.38
2023-05-08T04:54:57.550Z,19.00
2023-05-08T04:56:06.515Z,10.25
2023-05-08T04:57:10.333Z,10.15
2023-05-08T04:58:13.829Z,15.50
2023-05-08T04:59:16.896Z,10.55
2023-05-08T05:00:21.304Z,10.05
2023-05-08T05:01:25.178Z,10.25
2023-05-08T05:02:28.731Z,9.85
2023-05-08T05:03:32.412Z,10.40
2023-05-08T05:04:37.708Z,11.02
2023-05-08T05:05:42.221Z,15.15
2023-05-08T05:06:46.001Z,17.02
2023-05-08T05:07:49.397Z,23.35
2023-05-08T05:09:00.701Z,18.70
2023-05-08T05:10:04.871Z,11.57
2023-05-08T05:11:10.394Z,12.27
2023-05-08T05:12:14.510Z,12.15
2023-05-08T05:13:18.050Z,18.92
2023-05-08T05:14:21.495Z,13.98
2023-05-08T05:15:25.075Z,13.05
2023-05-08T05:16:28.586Z,21.08
2023-05-08T05:17:33.445Z,10.38
2023-05-08T05:18:36.951Z,12.30
2023-05-08T05:19:40.152Z,11.70
2023-05-08T05:20:43.537Z,14.20
2023-05-08T05:21:47.054Z,13.63
2023-05-08T05:22:50.280Z,19.10
2023-05-08T05:23:54.249Z,12.02
2023-05-08T05:24:59.208Z,13.43
2023-05-08T05:26:06.369Z,16.75
2023-05-08T05:27:10.958Z,9.93
2023-05-08T05:28:14.965Z,13.25
2023-05-08T05:29:18.380Z,7.70
2023-05-08T05:30:22.135Z,13.48
2023-05-08T05:31:26.144Z,7.63
2023-05-08T05:32:31.098Z,8.88
2023-05-08T05:33:36.918Z,8.35
2023-05-08T05:34:41.079Z,7.28
2023-05-08T05:35:44.855Z,6.97
2023-05-08T05:36:48.134Z,11.60
2023-05-08T05:37:51.445Z,8.57
2023-05-08T05:38:54.637Z,7.80
2023-05-08T05:39:57.853Z,7.68
2023-05-08T05:41:01.141Z,7.70
2023-05-08T05:42:05.413Z,5.40
2023-05-08T05:43:08.991Z,8.55
2023-05-08T05:44:12.829Z,9.68
2023-05-08T05:45:16.369Z,8.65
2023-05-08T05:46:19.687Z,10.85
2023-05-08T05:47:24.017Z,6.38
2023-05-08T05:48:27.832Z,4.72
2023-05-08T05:49:31.344Z,5.75
2023-05-08T05:50:35.347Z,5.10
2023-05-08T05:51:39.207Z,4.18
2023-05-08T05:52:42.596Z,3.85
2023-05-08T05:53:46.340Z,4.82
2023-05-08T05:54:50.058Z,4.47
2023-05-08T05:55:55.580Z,4.80
2023-05-08T05:56:58.831Z,6.15
2023-05-08T05:58:01.964Z,5.28
2023-05-08T05:59:05.758Z,5.03
2023-05-08T06:00:11.413Z,2.97
2023-05-08T06:01:29.146Z,7.93
2023-05-08T06:02:37.299Z,4.60
2023-05-08T06:03:41.028Z,6.93
2023-05-08T06:04:44.492Z,7.05
2023-05-08T06:05:49.521Z,3.97
2023-05-08T06:06:53.158Z,6.57
2023-05-08T06:07:57.285Z,7.45
2023-05-08T06:09:00.781Z,7.88
2023-05-08T06:10:05.034Z,4.30
2023-05-08T06:11:09.849Z,3.95
2023-05-08T06:12:13.746Z,5.03
2023-05-08T06:13:17.577Z,3.55
2023-05-08T06:14:20.992Z,3.70
2023-05-08T06:15:24.971Z,4.65
2023-05-08T06:16:30.452Z,3.38
2023-05-08T06:17:34.148Z,5.10
2023-05-08T06:18:38.086Z,3.20
2023-05-08T06:19:50.390Z,4.35
2023-05-08T06:21:00.606Z,3.78
2023-05-08T06:22:04.128Z,3.53
2023-05-08T06:23:07.470Z,4.22
2023-05-08T06:24:11.760Z,6.40
2023-05-08T06:25:15.451Z,5.05
2023-05-08T06:26:20.140Z,3.22
2023-05-08T06:27:24.882Z,5.15
2023-05-08T06:28:28.598Z,3.58
2023-05-08T06:29:31.706Z,5.25
2023-05-08T06:30:36.087Z,3.85
2023-05-08T06:31:39.752Z,2.97
2023-05-08T06:32:44.549Z,3.92
2023-05-08T06:33:49.276Z,4.40
2023-05-08T06:34:52.534Z,2.90
2023-05-08T06:35:56.151Z,2.47
2023-05-08T06:37:06.869Z,6.32
2023-05-08T06:38:17.466Z,2.97
2023-05-08T06:39:21.501Z,3.75
2023-05-08T06:40:24.975Z,1.80
2023-05-08T06:41:28.579Z,4.00
2023-05-08T06:42:32.470Z,2.67
2023-05-08T06:43:36.982Z,3.45
2023-05-08T06:44:40.920Z,3.20
2023-05-08T06:45:45.861Z,4.78
2023-05-08T06:46:49.020Z,2.55
2023-05-08T06:47:52.646Z,3.10
2023-05-08T06:48:56.009Z,4.60
2023-05-08T06:50:01.130Z,2.35
2023-05-08T06:51:04.803Z,2.95
2023-05-08T06:52:08.282Z,2.20
2023-05-08T06:53:12.465Z,3.75
2023-05-08T06:54:15.907Z,5.53
2023-05-08T06:55:19.461Z,2.30
2023-05-08T06:56:25.294Z,2.13
2023-05-08T06:57:30.422Z,1.48
2023-05-08T06:58:34.212Z,1.55
2023-05-08T06:59:37.507Z,2.30
2023-05-08T07:00:42.015Z,1.92
2023-05-08T07:01:45.402Z,1.98
2023-05-08T07:02:50.132Z,2.75
2023-05-08T07:03:53.974Z,3.95
2023-05-08T07:04:57.480Z,1.95
2023-05-08T07:06:01.601Z,3.10
2023-05-08T07:07:06.910Z,3.53
2023-05-08T07:08:10.582Z,1.25
2023-05-08T07:09:14.386Z,3.83
2023-05-08T07:10:19.990Z,1.20
2023-05-08T07:11:23.966Z,2.22
2023-05-08T07:12:27.945Z,0.82
2023-05-08T07:13:36.074Z,3.40
2023-05-08T07:14:40.900Z,1.17
2023-05-08T07:15:44.810Z,1.88
2023-05-08T07:16:48.502Z,1.95
2023-05-08T07:17:51.863Z,2.15
2023-05-08T07:18:55.365Z,1.88
2023-05-08T07:19:58.617Z,1.00
2023-05-08T07:21:02.420Z,1.45
2023-05-08T07:22:06.616Z,2.65
2023-05-08T07:23:10.166Z,1.27
2023-05-08T07:24:13.634Z,4.32
2023-05-08T07:25:17.035Z,1.67
2023-05-08T07:26:21.630Z,1.25
2023-05-08T07:27:28.487Z,1.23
2023-05-08T07:28:32.597Z,1.40
2023-05-08T07:29:36.271Z,1.48
2023-05-08T07:30:39.609Z,1.38
2023-05-08T07:31:43.070Z,1.75
2023-05-08T07:32:46.543Z,3.85
2023-05-08T07:33:50.559Z,1.02
2023-05-08T07:34:54.181Z,2.28
2023-05-08T07:36:00.408Z,2.70
2023-05-08T07:37:06.071Z,6.65
2023-05-08T07:38:09.666Z,2.20
2023-05-08T07:39:13.567Z,3.58
2023-05-08T07:40:17.444Z,1.65
2023-05-08T07:41:20.896Z,1.42
2023-05-08T07:42:24.745Z,1.52
2023-05-08T07:43:29.135Z,1.13
2023-05-08T07:44:43.664Z,1.98
2023-05-08T07:45:57.278Z,1.13
2023-05-08T07:47:00.682Z,1.95
2023-05-08T07:48:04.595Z,3.15
2023-05-08T07:49:08.151Z,2.08
2023-05-08T07:50:11.775Z,1.65
2023-05-08T07:51:16.005Z,2.63
2023-05-08T07:52:19.604Z,1.58
2023-05-08T07:53:35.320Z,1.58
2023-05-08T07:54:38.825Z,2.60
2023-05-08T07:55:42.461Z,2.95
2023-05-08T07:56:45.661Z,2.55
2023-05-08T07:57:48.874Z,2.03
2023-05-08T07:58:52.596Z,2.63
2023-05-08T08:00:01.991Z,1.45
2023-05-08T08:01:19.870Z,1.30
2023-05-08T08:02:23.829Z,1.50
2023-05-08T08:03:28.192Z,3.22
2023-05-08T08:04:31.909Z,1.30
2023-05-08T08:05:35.369Z,4.00
2023-05-08T08:06:38.872Z,2.65
2023-05-08T08:07:42.179Z,2.50
2023-05-08T08:08:45.612Z,1.50
2023-05-08T08:09:49.109Z,4.75
2023-05-08T08:10:52.835Z,0.93
2023-05-08T08:11:56.386Z,0.98
2023-05-08T08:13:01.959Z,1.10
2023-05-08T08:14:07.825Z,2.83
2023-05-08T08:15:12.406Z,1.25
2023-05-08T08:16:16.106Z,3.97
2023-05-08T08:17:19.581Z,1.25
2023-05-08T08:18:23.758Z,1.00
2023-05-08T08:19:27.385Z,4.43
2023-05-08T08:20:30.609Z,2.78
2023-05-08T08:21:34.032Z,3.05
2023-05-08T08:22:39.146Z,1.38
2023-05-08T08:23:42.582Z,1.92
2023-05-08T08:24:47.038Z,1.17
2023-05-08T08:25:51.479Z,3.53
2023-05-08T08:26:55.934Z,2.45
2023-05-08T08:27:59.399Z,2.25
2023-05-08T08:29:03.050Z,1.88
2023-05-08T08:30:19.957Z,3.90
2023-05-08T08:31:24.201Z,1.27
2023-05-08T08:32:27.726Z,3.65
2023-05-08T08:33:32.057Z,1.08
2023-05-08T08:34:35.589Z,3.75
2023-05-08T08:35:42.239Z,1.35
2023-05-08T08:36:45.863Z,3.75
2023-05-08T08:37:50.332Z,2.38
2023-05-08T08:38:54.187Z,1.58
2023-05-08T08:39:58.485Z,3.45
2023-05-08T08:41:01.898Z,4.10
2023-05-08T08:42:05.858Z,4.05
2023-05-08T08:43:10.612Z,2.28
2023-05-08T08:44:14.454Z,1.63
2023-05-08T08:45:18.148Z,3.40
2023-05-08T08:46:26.676Z,1.83
2023-05-08T08:47:42.693Z,1.83
2023-05-08T08:48:48.882Z,5.22
2023-05-08T08:49:53.477Z,1.50
2023-05-08T08:51:03.231Z,4.43
2023-05-08T08:52:19.198Z,2.83
2023-05-08T08:53:31.103Z,4.85
2023-05-08T08:54:35.955Z,1.52
2023-05-08T08:55:50.454Z,4.50
2023-05-08T08:56:55.749Z,5.00
2023-05-08T08:58:42.607Z,4.47
2023-05-08T08:59:46.154Z,1.70
2023-05-08T09:00:50.803Z,2.75
2023-05-08T09:02:01.396Z,1.98
2023-05-08T09:03:08.634Z,2.28
2023-05-08T09:04:12.362Z,2.00
2023-05-08T09:05:17.995Z,2.95
2023-05-08T09:06:21.809Z,1.63
2023-05-08T09:07:27.083Z,2.55
2023-05-08T09:08:32.550Z,8.93
2023-05-08T09:09:41.238Z,4.45
2023-05-08T09:10:46.063Z,3.08
2023-05-08T09:11:53.489Z,2.00
2023-05-08T09:12:56.851Z,1.80
2023-05-08T09:14:00.108Z,3.85
2023-05-08T09:15:03.498Z,2.53
2023-05-08T09:16:07.213Z,3.80
2023-05-08T09:17:10.667Z,5.65
2023-05-08T09:18:15.613Z,2.42
2023-05-08T09:19:20.987Z,5.15
2023-05-08T09:20:26.795Z,6.13
2023-05-08T09:21:30.591Z,4.68
2023-05-08T09:22:37.166Z,1.50
2023-05-08T09:24:01.117Z,2.42
2023-05-08T09:25:04.594Z,1.48
2023-05-08T09:26:09.320Z,3.65
2023-05-08T09:27:27.944Z,4.88
2023-05-08T09:28:31.521Z,2.00
2023-05-08T09:29:35.197Z,4.57
2023-05-08T09:31:07.780Z,2.38
2023-05-08T09:32:19.065Z,2.40
2023-05-08T09:33:29.154Z,2.40
2023-05-08T09:34:33.455Z,1.23
2023-05-08T09:35:38.301Z,2.60
2023-05-08T09:36:42.249Z,1.55
2023-05-08T09:37:47.533Z,1.30
2023-05-08T09:38:51.872Z,5.07
2023-05-08T09:40:18.367Z,4.70
2023-05-08T09:41:24.115Z,3.28
2023-05-08T09:42:39.346Z,1.98
2023-05-08T09:44:00.353Z,1.77
2023-05-08T09:45:04.096Z,1.20
2023-05-08T09:46:28.106Z,2.05
2023-05-08T09:47:31.398Z,1.25
2023-05-08T09:48:38.756Z,2.10
2023-05-08T09:50:03.835Z,1.20
2023-05-08T09:51:07.797Z,4.28
2023-05-08T09:52:16.481Z,3.75
2023-05-08T09:53:19.972Z,2.13
2023-05-08T09:54:23.770Z,4.13
2023-05-08T09:55:48.327Z,2.33
2023-05-08T09:56:52.617Z,2.72
2023-05-08T09:58:00.327Z,1.27
2023-05-08T09:59:21.868Z,3.83
2023-05-08T10:00:27.777Z,1.70
2023-05-08T10:01:36.770Z,1.65
2023-05-08T10:03:00.152Z,1.27
2023-05-08T10:04:06.129Z,1.67
2023-05-08T10:05:36.006Z,1.25
2023-05-08T10:06:39.444Z,1.67
2023-05-08T10:07:43.077Z,1.98
2023-05-08T10:08:48.320Z,3.30
2023-05-08T10:10:28.652Z,1.52
2023-05-08T10:11:32.725Z,1.65
2023-05-08T10:12:38.060Z,3.78
2023-05-08T10:13:41.689Z,3.50
2023-05-08T10:14:47.126Z,1.38
2023-05-08T10:15:54.796Z,8.23
2023-05-08T10:17:01.626Z,6.00
2023-05-08T10:18:08.024Z,1.58
2023-05-08T10:19:19.923Z,2.65
2023-05-08T10:20:28.314Z,1.90
2023-05-08T10:21:53.380Z,1.40
2023-05-08T10:22:58.697Z,1.77
2023-05-08T10:24:12.468Z,1.75
2023-05-08T10:25:20.783Z,3.90
2023-05-08T10:26:34.241Z,1.35
2023-05-08T10:28:18.658Z,3.42
2023-05-08T10:29:33.065Z,1.15
2023-05-08T10:30:41.986Z,2.30
2023-05-08T10:31:50.126Z,0.60
2023-05-08T10:32:56.677Z,4.65
2023-05-08T10:34:03.360Z,3.03
2023-05-08T10:35:11.099Z,1.83
2023-05-08T10:36:24.347Z,2.58
2023-05-08T10:37:31.132Z,2.63
2023-05-08T10:38:35.314Z,1.83
2023-05-08T10:39:40.572Z,1.45
2023-05-08T10:40:44.751Z,1.58
2023-05-08T10:41:50.344Z,1.30
2023-05-08T10:42:53.812Z,4.88
2023-05-08T10:44:01.748Z,5.85
2023-05-08T10:45:09.870Z,3.35
2023-05-08T10:46:38.438Z,4.43
2023-05-08T10:48:03.989Z,3.30
2023-05-08T10:49:43.854Z,2.55
2023-05-08T10:51:26.141Z,2.65
2023-05-08T10:53:12.450Z,2.22
2023-05-08T10:55:06.226Z,1.45
2023-05-08T10:56:10.731Z,5.50
2023-05-08T10:57:15.591Z,2.05
2023-05-08T10:58:31.667Z,2.30
2023-05-08T10:59:37.738Z,5.47
2023-05-08T11:00:53.240Z,1.67
2023-05-08T11:02:08.346Z,1.65
2023-05-08T11:03:23.558Z,1.17
2023-05-08T11:04:44.128Z,4.05
2023-05-08T11:05:51.326Z,1.90
2023-05-08T11:06:54.595Z,1.92
2023-05-08T11:08:01.365Z,2.00
2023-05-08T11:09:05.514Z,3.75
2023-05-08T11:10:14.419Z,2.25
2023-05-08T11:11:33.570Z,1.60
2023-05-08T11:12:39.655Z,2.03
2023-05-08T11:14:07.233Z,2.60
2023-05-08T11:15:11.645Z,2.10
2023-05-08T11:16:17.369Z,2.05
2023-05-08T11:17:25.931Z,2.78
2023-05-08T11:18:41.916Z,1.55
2023-05-08T11:20:07.012Z,2.20
2023-05-08T11:21:21.173Z,4.20
2023-05-08T11:22:32.900Z,3.80
2023-05-08T11:23:37.628Z,6.05
2023-05-08T11:24:54.430Z,1.75
2023-05-08T11:26:06.589Z,7.38
2023-05-08T11:27:10.049Z,3.25
2023-05-08T11:28:17.236Z,3.78
2023-05-08T11:29:20.923Z,1.83
2023-05-08T11:30:38.691Z,1.73
2023-05-08T11:31:52.929Z,2.22
2023-05-08T11:33:05.643Z,2.13
2023-05-08T11:34:44.307Z,1.75
2023-05-08T11:35:57.238Z,2.17
2023-05-08T11:37:04.037Z,3.53
2023-05-08T11:38:22.034Z,2.90
2023-05-08T11:39:25.477Z,4.82
2023-05-08T11:41:01.342Z,2.97
2023-05-08T11:42:26.903Z,5.13
2023-05-08T11:43:33.610Z,2.65
2023-05-08T11:44:38.028Z,2.28
2023-05-08T11:45:42.884Z,2.22
2023-05-08T11:46:56.788Z,2.60
2023-05-08T11:48:01.988Z,2.80
2023-05-08T11:49:10.325Z,4.28
2023-05-08T11:50:14.471Z,2.22
2023-05-08T11:51:20.262Z,1.80
2023-05-08T11:52:27.393Z,3.03
2023-05-08T11:53:32.609Z,5.40
2023-05-08T11:54:37.429Z,2.58
2023-05-08T11:55:41.253Z,5.55
2023-05-08T11:56:47.947Z,1.83
2023-05-08T11:57:56.124Z,2.50
2023-05-08T11:59:08.805Z,2.88
2023-05-08T12:00:13.790Z,2.42
2023-05-08T12:01:21.031Z,2.28
2023-05-08T12:02:37.591Z,1.58
2023-05-08T12:03:43.711Z,1.23
2023-05-08T12:04:49.378Z,6.07
2023-05-08T12:05:57.920Z,1.77
2023-05-08T12:07:06.452Z,2.78
2023-05-08T12:08:14.032Z,2.63
2023-05-08T12:09:20.630Z,2.00
2023-05-08T12:10:26.061Z,5.95
2023-05-08T12:11:32.173Z,4.88
2023-05-08T12:12:46.162Z,4.55
2023-05-08T12:13:54.985Z,4.75
2023-05-08T12:14:58.590Z,2.30
2023-05-08T12:16:02.123Z,1.73
2023-05-08T12:17:06.185Z,2.47
2023-05-08T12:18:09.878Z,1.90
2023-05-08T12:19:14.772Z,1.92
2023-05-08T12:20:19.563Z,1.17
2023-05-08T12:21:23.458Z,1.67
2023-05-08T12:22:27.283Z,5.00
2023-05-08T12:23:31.021Z,5.07
2023-05-08T12:24:34.263Z,3.67
2023-05-08T12:25:40.836Z,2.08
2023-05-08T12:26:44.420Z,4.72
2023-05-08T12:27:48.337Z,5.45
2023-05-08T12:28:57.913Z,1.90
2023-05-08T12:30:08.690Z,2.33
2023-05-08T12:31:13.000Z,5.50
2023-05-08T12:32:17.239Z,1.63
2023-05-08T12:33:22.088Z,3.10
2023-05-08T12:34:25.723Z,2.17
2023-05-08T12:35:29.598Z,1.63
2023-05-08T12:36:37.786Z,1.67
2023-05-08T12:37:41.666Z,1.75
2023-05-08T12:38:45.126Z,4.78
2023-05-08T12:39:48.540Z,2.60
2023-05-08T12:40:53.198Z,3.30
2023-05-08T12:41:56.717Z,2.78
2023-05-08T12:43:03.463Z,2.30
2023-05-08T12:44:26.341Z,1.95
2023-05-08T12:45:33.910Z,1.98
2023-05-08T12:46:45.857Z,3.50
2023-05-08T12:47:54.016Z,4.63
2023-05-08T12:49:07.387Z,3.05
2023-05-08T12:50:12.435Z,5.30
2023-05-08T12:51:16.293Z,9.63
2023-05-08T12:52:19.797Z,1.65
2023-05-08T12:53:23.950Z,5.47
2023-05-08T12:54:41.744Z,4.43
2023-05-08T12:55:59.201Z,4.68
2023-05-08T12:57:14.925Z,1.58
2023-05-08T12:58:18.428Z,3.08
2023-05-08T12:59:32.211Z,3.22
2023-05-08T13:00:39.179Z,2.42
2023-05-08T13:01:42.837Z,4.85
2023-05-08T13:02:56.492Z,3.45
2023-05-08T13:04:03.170Z,1.75
2023-05-08T13:05:07.267Z,2.15
2023-05-08T13:06:22.950Z,6.18
2023-05-08T13:07:32.852Z,1.92
2023-05-08T13:08:38.923Z,3.42
2023-05-08T13:10:04.968Z,2.95
2023-05-08T13:11:08.823Z,3.53
2023-05-08T13:12:12.141Z,1.95
2023-05-08T13:13:26.021Z,2.40
2023-05-08T13:14:29.839Z,3.47
2023-05-08T13:15:33.306Z,1.30
2023-05-08T13:16:47.878Z,2.00
2023-05-08T13:17:51.953Z,3.65
2023-05-08T13:18:55.586Z,1.65
2023-05-08T13:19:59.213Z,2.22
2023-05-08T13:21:03.696Z,1.63
2023-05-08T13:22:07.505Z,2.38
2023-05-08T13:23:11.600Z,2.50
2023-05-08T13:24:15.684Z,6.10
2023-05-08T13:25:18.985Z,3.63
2023-05-08T13:26:22.787Z,1.90
2023-05-08T13:27:26.747Z,2.55
2023-05-08T13:28:30.175Z,2.65
2023-05-08T13:29:33.745Z,2.65
2023-05-08T13:30:38.174Z,4.82
2023-05-08T13:31:41.899Z,3.42
2023-05-08T13:32:45.696Z,2.35
2023-05-08T13:33:49.488Z,4.80
2023-05-08T13:34:55.250Z,5.03
2023-05-08T13:36:02.423Z,2.85
2023-05-08T13:37:06.933Z,2.97
2023-05-08T13:38:10.933Z,2.65
2023-05-08T13:39:15.281Z,1.15
2023-05-08T13:40:18.703Z,2.55
2023-05-08T13:41:22.667Z,2.50
2023-05-08T13:42:26.088Z,2.75
2023-05-08T13:43:29.477Z,2.65
2023-05-08T13:44:32.945Z,2.58
2023-05-08T13:45:37.325Z,2.58
2023-05-08T13:46:41.266Z,3.05
2023-05-08T13:47:49.613Z,2.85
2023-05-08T13:48:54.254Z,3.47
2023-05-08T13:49:57.841Z,2.72
2023-05-08T13:51:02.061Z,5.50
2023-05-08T13:52:06.015Z,2.72
2023-05-08T13:53:09.797Z,2.28
2023-05-08T13:54:26.267Z,2.38
2023-05-08T13:55:30.181Z,2.15
2023-05-08T13:56:34.166Z,7.10
2023-05-08T13:57:39.576Z,3.95
2023-05-08T13:58:42.926Z,2.05
2023-05-08T13:59:46.135Z,1.83
2023-05-08T14:00:50.105Z,3.50
2023-05-08T14:01:53.714Z,2.72
2023-05-08T14:02:57.111Z,5.80
2023-05-08T14:04:00.929Z,5.93
2023-05-08T14:05:05.408Z,7.15
2023-05-08T14:06:09.388Z,3.08
2023-05-08T14:07:13.078Z,4.15
2023-05-08T14:08:16.424Z,4.68
2023-05-08T14:09:22.377Z,2.53
2023-05-08T14:10:27.093Z,8.82
2023-05-08T14:11:30.439Z,3.55
2023-05-08T14:12:37.134Z,1.60
2023-05-08T14:13:44.444Z,2.67
2023-05-08T14:14:48.053Z,1.40
2023-05-08T14:15:51.820Z,5.70
2023-05-08T14:16:55.868Z,2.03
2023-05-08T14:18:00.723Z,2.13
2023-05-08T14:19:04.508Z,4.57
2023-05-08T14:20:10.264Z,3.70
2023-05-08T14:21:15.148Z,3.50
2023-05-08T14:22:18.939Z,3.60
2023-05-08T14:23:22.198Z,1.60
2023-05-08T14:24:25.899Z,4.93
2023-05-08T14:25:29.282Z,3.53
2023-05-08T14:26:32.896Z,3.15
2023-05-08T14:27:36.145Z,1.60
2023-05-08T14:28:39.821Z,4.72
2023-05-08T14:29:43.243Z,4.95
2023-05-08T14:30:46.528Z,2.80
2023-05-08T14:31:50.199Z,3.15
2023-05-08T14:32:53.627Z,1.42
2023-05-08T14:33:57.594Z,2.97
2023-05-08T14:35:11.981Z,2.67
2023-05-08T14:36:15.971Z,4.38
2023-05-08T14:37:20.315Z,1.38
2023-05-08T14:38:24.388Z,2.38
2023-05-08T14:39:28.094Z,2.38
2023-05-08T14:40:31.639Z,5.28
2023-05-08T14:41:35.289Z,4.82
2023-05-08T14:42:39.715Z,2.70
2023-05-08T14:43:44.041Z,4.30
2023-05-08T14:44:57.495Z,1.13
2023-05-08T14:46:01.882Z,1.70
2023-05-08T14:47:21.055Z,6.28
2023-05-08T14:48:27.784Z,1.85
2023-05-08T14:49:38.731Z,1.83
2023-05-08T14:50:50.320Z,2.85
2023-05-08T14:52:09.628Z,2.15
2023-05-08T14:53:13.557Z,2.05
2023-05-08T14:54:25.597Z,2.15
2023-05-08T14:55:29.863Z,3.40
2023-05-08T14:56:52.878Z,4.43
2023-05-08T14:58:15.856Z,2.00
2023-05-08T14:59:45.841Z,3.40